sensor_id;sensor_type;location;lat;lon;timestamp;temperature;humidity
76857;DHT22;69705;44.686;37.628;2023-10-13T00:01:57;6.69;90.47
76857;DHT22;69705;44.686;37.628;2023-10-13T00:04:29;6.70;90.53
76857;DHT22;69705;44.686;37.628;2023-10-13T00:07:02;6.64;90.77
76857;DHT22;69705;44.686;37.628;2023-10-13T00:09:30;6.61;90.65
76857;DHT22;69705;44.686;37.628;2023-10-13T00:12:07;6.63;90.47
76857;DHT22;69705;44.686;37.628;2023-10-13T00:14:42;6.63;89.81
76857;DHT22;69705;44.686;37.628;2023-10-13T00:17:11;6.56;90.35
76857;DHT22;69705;44.686;37.628;2023-10-13T00:19:46;6.57;90.19
76857;DHT22;69705;44.686;37.628;2023-10-13T00:22:14;6.61;90.33
76857;DHT22;69705;44.686;37.628;2023-10-13T00:24:46;6.65;90.65
76857;DHT22;69705;44.686;37.628;2023-10-13T00:27:15;6.72;90.10
76857;DHT22;69705;44.686;37.628;2023-10-13T00:30:00;6.73;89.87
76857;DHT22;69705;44.686;37.628;2023-10-13T00:32:51;6.66;89.99
76857;DHT22;69705;44.686;37.628;2023-10-13T00:35:28;6.61;89.89
76857;DHT22;69705;44.686;37.628;2023-10-13T00:38:05;6.65;89.71
76857;DHT22;69705;44.686;37.628;2023-10-13T00:40:43;6.57;90.12
76857;DHT22;69705;44.686;37.628;2023-10-13T00:43:11;6.54;90.07
76857;DHT22;69705;44.686;37.628;2023-10-13T00:45:50;6.51;90.15
76857;DHT22;69705;44.686;37.628;2023-10-13T00:48:37;6.46;89.99
76857;DHT22;69705;44.686;37.628;2023-10-13T00:51:21;6.49;90.21
76857;DHT22;69705;44.686;37.628;2023-10-13T00:54:09;6.46;89.84
76857;DHT22;69705;44.686;37.628;2023-10-13T00:56:40;6.50;89.54
76857;DHT22;69705;44.686;37.628;2023-10-13T00:59:19;6.45;89.24
76857;DHT22;69705;44.686;37.628;2023-10-13T01:01:49;6.41;89.69
76857;DHT22;69705;44.686;37.628;2023-10-13T01:04:22;6.42;90.00
76857;DHT22;69705;44.686;37.628;2023-10-13T01:06:54;6.44;89.88
76857;DHT22;69705;44.686;37.628;2023-10-13T01:09:21;6.51;89.64
76857;DHT22;69705;44.686;37.628;2023-10-13T01:11:51;6.53;89.26
76857;DHT22;69705;44.686;37.628;2023-10-13T01:14:22;6.55;89.13
76857;DHT22;69705;44.686;37.628;2023-10-13T01:16:53;6.54;89.44
76857;DHT22;69705;44.686;37.628;2023-10-13T01:19:21;6.51;89.54
76857;DHT22;69705;44.686;37.628;2023-10-13T01:21:52;6.46;89.21
76857;DHT22;69705;44.686;37.628;2023-10-13T01:24:29;6.42;89.20
76857;DHT22;69705;44.686;37.628;2023-10-13T01:27:05;6.36;89.57
76857;DHT22;69705;44.686;37.628;2023-10-13T01:29:44;6.36;89.65
76857;DHT22;69705;44.686;37.628;2023-10-13T01:32:23;6.35;89.95
76857;DHT22;69705;44.686;37.628;2023-10-13T01:34:50;6.33;90.18
76857;DHT22;69705;44.686;37.628;2023-10-13T01:37:22;6.35;90.30
76857;DHT22;69705;44.686;37.628;2023-10-13T01:39:49;6.34;90.24
76857;DHT22;69705;44.686;37.628;2023-10-13T01:42:16;6.33;90.31
76857;DHT22;69705;44.686;37.628;2023-10-13T01:44:48;6.26;90.37
76857;DHT22;69705;44.686;37.628;2023-10-13T01:47:14;6.20;90.40
76857;DHT22;69705;44.686;37.628;2023-10-13T01:49:43;6.22;90.44
76857;DHT22;69705;44.686;37.628;2023-10-13T01:52:18;6.20;89.93
76857;DHT22;69705;44.686;37.628;2023-10-13T01:54:46;6.17;89.78
76857;DHT22;69705;44.686;37.628;2023-10-13T01:57:15;6.15;90.41
76857;DHT22;69705;44.686;37.628;2023-10-13T01:59:46;6.13;90.21
76857;DHT22;69705;44.686;37.628;2023-10-13T02:02:14;6.14;90.35
76857;DHT22;69705;44.686;37.628;2023-10-13T02:04:42;6.15;90.26
76857;DHT22;69705;44.686;37.628;2023-10-13T02:07:16;6.09;90.21
76857;DHT22;69705;44.686;37.628;2023-10-13T02:09:43;6.05;90.66
76857;DHT22;69705;44.686;37.628;2023-10-13T02:12:09;6.05;90.59
76857;DHT22;69705;44.686;37.628;2023-10-13T02:14:37;6.09;90.90
76857;DHT22;69705;44.686;37.628;2023-10-13T02:17:05;6.09;90.43
76857;DHT22;69705;44.686;37.628;2023-10-13T02:19:42;6.05;90.18
76857;DHT22;69705;44.686;37.628;2023-10-13T02:22:14;6.02;90.43
76857;DHT22;69705;44.686;37.628;2023-10-13T02:24:56;5.99;90.18
76857;DHT22;69705;44.686;37.628;2023-10-13T02:27:27;5.95;89.95
76857;DHT22;69705;44.686;37.628;2023-10-13T02:29:54;5.95;90.37
76857;DHT22;69705;44.686;37.628;2023-10-13T02:32:31;5.93;89.69
76857;DHT22;69705;44.686;37.628;2023-10-13T02:34:59;5.85;89.92
76857;DHT22;69705;44.686;37.628;2023-10-13T02:37:32;5.85;90.46
76857;DHT22;69705;44.686;37.628;2023-10-13T02:39:59;5.92;90.80
76857;DHT22;69705;44.686;37.628;2023-10-13T02:42:26;5.98;90.28
76857;DHT22;69705;44.686;37.628;2023-10-13T02:44:53;5.98;90.29
76857;DHT22;69705;44.686;37.628;2023-10-13T02:47:23;5.94;90.31
76857;DHT22;69705;44.686;37.628;2023-10-13T02:49:50;5.92;90.06
76857;DHT22;69705;44.686;37.628;2023-10-13T02:52:17;5.90;89.94
76857;DHT22;69705;44.686;37.628;2023-10-13T02:54:44;5.86;89.95
76857;DHT22;69705;44.686;37.628;2023-10-13T02:57:17;5.89;90.27
76857;DHT22;69705;44.686;37.628;2023-10-13T02:59:44;5.87;90.21
76857;DHT22;69705;44.686;37.628;2023-10-13T03:02:15;5.83;90.72
76857;DHT22;69705;44.686;37.628;2023-10-13T03:04:52;5.84;90.75
76857;DHT22;69705;44.686;37.628;2023-10-13T03:07:26;5.87;90.31
76857;DHT22;69705;44.686;37.628;2023-10-13T03:09:58;5.89;90.17
76857;DHT22;69705;44.686;37.628;2023-10-13T03:12:26;5.85;90.66
76857;DHT22;69705;44.686;37.628;2023-10-13T03:14:59;5.82;90.86
76857;DHT22;69705;44.686;37.628;2023-10-13T03:17:46;5.85;90.90
76857;DHT22;69705;44.686;37.628;2023-10-13T03:20:14;5.85;91.52
76857;DHT22;69705;44.686;37.628;2023-10-13T03:22:42;5.91;91.66
76857;DHT22;69705;44.686;37.628;2023-10-13T03:25:15;6.00;91.71
76857;DHT22;69705;44.686;37.628;2023-10-13T03:27:55;6.04;91.44
76857;DHT22;69705;44.686;37.628;2023-10-13T03:30:22;6.05;91.51
76857;DHT22;69705;44.686;37.628;2023-10-13T03:32:57;6.08;91.71
76857;DHT22;69705;44.686;37.628;2023-10-13T03:35:23;6.12;91.66
76857;DHT22;69705;44.686;37.628;2023-10-13T03:37:51;6.12;91.69
76857;DHT22;69705;44.686;37.628;2023-10-13T03:40:18;6.12;91.45
76857;DHT22;69705;44.686;37.628;2023-10-13T03:42:48;6.09;91.15
76857;DHT22;69705;44.686;37.628;2023-10-13T03:45:40;6.05;90.97
76857;DHT22;69705;44.686;37.628;2023-10-13T03:48:12;5.99;90.76
76857;DHT22;69705;44.686;37.628;2023-10-13T03:50:59;5.98;90.95
76857;DHT22;69705;44.686;37.628;2023-10-13T03:53:42;5.96;90.70
76857;DHT22;69705;44.686;37.628;2023-10-13T03:56:29;5.89;90.94
76857;DHT22;69705;44.686;37.628;2023-10-13T03:59:06;5.87;91.30
76857;DHT22;69705;44.686;37.628;2023-10-13T04:01:36;5.89;90.94
76857;DHT22;69705;44.686;37.628;2023-10-13T04:04:18;5.91;90.86
76857;DHT22;69705;44.686;37.628;2023-10-13T04:07:04;5.96;90.37
76857;DHT22;69705;44.686;37.628;2023-10-13T04:09:35;5.92;90.23
76857;DHT22;69705;44.686;37.628;2023-10-13T04:12:03;5.93;90.84
76857;DHT22;69705;44.686;37.628;2023-10-13T04:14:32;5.96;91.13
76857;DHT22;69705;44.686;37.628;2023-10-13T04:17:18;5.97;91.17
76857;DHT22;69705;44.686;37.628;2023-10-13T04:19:58;5.95;90.61
76857;DHT22;69705;44.686;37.628;2023-10-13T04:22:37;5.96;90.72
76857;DHT22;69705;44.686;37.628;2023-10-13T04:25:33;6.04;91.02
76857;DHT22;69705;44.686;37.628;2023-10-13T04:28:13;6.11;91.10
76857;DHT22;69705;44.686;37.628;2023-10-13T04:30:46;6.23;91.08
76857;DHT22;69705;44.686;37.628;2023-10-13T04:33:31;6.33;90.77
76857;DHT22;69705;44.686;37.628;2023-10-13T04:36:05;6.42;90.66
76857;DHT22;69705;44.686;37.628;2023-10-13T04:38:52;6.52;90.35
76857;DHT22;69705;44.686;37.628;2023-10-13T04:41:28;6.59;90.49
76857;DHT22;69705;44.686;37.628;2023-10-13T04:43:58;6.65;90.58
76857;DHT22;69705;44.686;37.628;2023-10-13T04:46:31;6.72;90.91
76857;DHT22;69705;44.686;37.628;2023-10-13T04:49:13;6.81;91.10
76857;DHT22;69705;44.686;37.628;2023-10-13T04:51:58;6.89;91.13
76857;DHT22;69705;44.686;37.628;2023-10-13T04:54:26;6.99;91.32
76857;DHT22;69705;44.686;37.628;2023-10-13T04:57:00;7.11;91.49
76857;DHT22;69705;44.686;37.628;2023-10-13T04:59:46;7.22;91.40
76857;DHT22;69705;44.686;37.628;2023-10-13T05:02:33;7.35;91.63
76857;DHT22;69705;44.686;37.628;2023-10-13T05:05:13;7.53;91.82
76857;DHT22;69705;44.686;37.628;2023-10-13T05:07:40;7.75;91.84
76857;DHT22;69705;44.686;37.628;2023-10-13T05:10:26;7.91;92.11
76857;DHT22;69705;44.686;37.628;2023-10-13T05:13:11;8.07;91.94
76857;DHT22;69705;44.686;37.628;2023-10-13T05:15:56;8.23;91.97
76857;DHT22;69705;44.686;37.628;2023-10-13T05:18:41;8.47;91.73
76857;DHT22;69705;44.686;37.628;2023-10-13T05:21:25;8.64;91.69
76857;DHT22;69705;44.686;37.628;2023-10-13T05:24:11;8.86;91.16
76857;DHT22;69705;44.686;37.628;2023-10-13T05:26:55;9.05;91.15
76857;DHT22;69705;44.686;37.628;2023-10-13T05:29:42;9.23;91.06
76857;DHT22;69705;44.686;37.628;2023-10-13T05:32:27;9.40;90.30
76857;DHT22;69705;44.686;37.628;2023-10-13T05:35:13;9.57;90.49
76857;DHT22;69705;44.686;37.628;2023-10-13T05:37:58;9.79;90.79
76857;DHT22;69705;44.686;37.628;2023-10-13T05:41:00;10.04;90.05
76857;DHT22;69705;44.686;37.628;2023-10-13T05:43:46;10.21;89.68
76857;DHT22;69705;44.686;37.628;2023-10-13T05:46:32;10.38;89.51
76857;DHT22;69705;44.686;37.628;2023-10-13T05:49:15;10.54;89.32
76857;DHT22;69705;44.686;37.628;2023-10-13T05:51:45;10.68;89.50
76857;DHT22;69705;44.686;37.628;2023-10-13T05:54:24;10.83;89.25
76857;DHT22;69705;44.686;37.628;2023-10-13T05:57:09;11.00;89.34
76857;DHT22;69705;44.686;37.628;2023-10-13T06:00:08;11.23;88.76
76857;DHT22;69705;44.686;37.628;2023-10-13T06:02:53;11.46;87.01
76857;DHT22;69705;44.686;37.628;2023-10-13T06:05:38;11.69;85.63
76857;DHT22;69705;44.686;37.628;2023-10-13T06:08:23;11.92;85.38
76857;DHT22;69705;44.686;37.628;2023-10-13T06:11:08;12.21;83.72
76857;DHT22;69705;44.686;37.628;2023-10-13T06:13:53;12.49;83.11
76857;DHT22;69705;44.686;37.628;2023-10-13T06:16:37;12.71;82.53
76857;DHT22;69705;44.686;37.628;2023-10-13T06:19:22;12.96;78.84
76857;DHT22;69705;44.686;37.628;2023-10-13T06:22:07;13.19;79.51
76857;DHT22;69705;44.686;37.628;2023-10-13T06:24:52;13.43;75.47
76857;DHT22;69705;44.686;37.628;2023-10-13T06:27:36;13.71;73.47
76857;DHT22;69705;44.686;37.628;2023-10-13T06:30:21;13.94;72.41
76857;DHT22;69705;44.686;37.628;2023-10-13T06:32:48;14.10;73.35
76857;DHT22;69705;44.686;37.628;2023-10-13T06:35:16;14.29;72.22
76857;DHT22;69705;44.686;37.628;2023-10-13T06:37:50;14.45;72.17
76857;DHT22;69705;44.686;37.628;2023-10-13T06:40:22;14.54;71.22
76857;DHT22;69705;44.686;37.628;2023-10-13T06:42:57;14.68;70.68
76857;DHT22;69705;44.686;37.628;2023-10-13T06:45:46;14.79;69.66
76857;DHT22;69705;44.686;37.628;2023-10-13T06:48:26;14.88;70.23
76857;DHT22;69705;44.686;37.628;2023-10-13T06:50:53;15.06;69.31
76857;DHT22;69705;44.686;37.628;2023-10-13T06:53:22;15.13;70.03
76857;DHT22;69705;44.686;37.628;2023-10-13T06:55:49;15.29;69.02
76857;DHT22;69705;44.686;37.628;2023-10-13T06:58:18;15.46;65.37
76857;DHT22;69705;44.686;37.628;2023-10-13T07:00:50;15.53;65.36
76857;DHT22;69705;44.686;37.628;2023-10-13T07:03:22;15.62;66.24
76857;DHT22;69705;44.686;37.628;2023-10-13T07:05:49;15.73;66.32
76857;DHT22;69705;44.686;37.628;2023-10-13T07:08:16;15.73;65.01
76857;DHT22;69705;44.686;37.628;2023-10-13T07:10:51;15.81;65.99
76857;DHT22;69705;44.686;37.628;2023-10-13T07:13:29;15.92;68.06
76857;DHT22;69705;44.686;37.628;2023-10-13T07:15:56;16.02;62.95
76857;DHT22;69705;44.686;37.628;2023-10-13T07:18:34;16.14;61.40
76857;DHT22;69705;44.686;37.628;2023-10-13T07:21:11;16.18;60.51
76857;DHT22;69705;44.686;37.628;2023-10-13T07:23:38;16.25;61.12
76857;DHT22;69705;44.686;37.628;2023-10-13T07:26:06;16.33;60.31
76857;DHT22;69705;44.686;37.628;2023-10-13T07:28:35;16.49;60.18
76857;DHT22;69705;44.686;37.628;2023-10-13T07:31:13;16.58;59.14
76857;DHT22;69705;44.686;37.628;2023-10-13T07:33:42;16.64;59.07
76857;DHT22;69705;44.686;37.628;2023-10-13T07:36:09;16.72;57.52
76857;DHT22;69705;44.686;37.628;2023-10-13T07:38:45;16.85;58.53
76857;DHT22;69705;44.686;37.628;2023-10-13T07:41:15;16.85;57.96
76857;DHT22;69705;44.686;37.628;2023-10-13T07:43:43;16.84;58.13
76857;DHT22;69705;44.686;37.628;2023-10-13T07:46:16;16.93;55.96
76857;DHT22;69705;44.686;37.628;2023-10-13T07:48:43;17.06;56.95
76857;DHT22;69705;44.686;37.628;2023-10-13T07:51:12;17.13;57.55
76857;DHT22;69705;44.686;37.628;2023-10-13T07:53:45;17.28;57.22
76857;DHT22;69705;44.686;37.628;2023-10-13T07:56:16;17.39;57.41
76857;DHT22;69705;44.686;37.628;2023-10-13T07:58:51;17.50;55.50
76857;DHT22;69705;44.686;37.628;2023-10-13T08:01:27;17.60;54.01
76857;DHT22;69705;44.686;37.628;2023-10-13T08:03:53;17.63;54.87
76857;DHT22;69705;44.686;37.628;2023-10-13T08:06:31;17.64;52.55
76857;DHT22;69705;44.686;37.628;2023-10-13T08:08:57;17.74;54.40
76857;DHT22;69705;44.686;37.628;2023-10-13T08:11:37;17.82;53.03
76857;DHT22;69705;44.686;37.628;2023-10-13T08:14:06;17.82;52.62
76857;DHT22;69705;44.686;37.628;2023-10-13T08:16:49;17.96;52.02
76857;DHT22;69705;44.686;37.628;2023-10-13T08:19:21;18.06;51.90
76857;DHT22;69705;44.686;37.628;2023-10-13T08:21:55;18.15;52.20
76857;DHT22;69705;44.686;37.628;2023-10-13T08:24:26;18.35;52.20
76857;DHT22;69705;44.686;37.628;2023-10-13T08:27:06;18.55;55.13
76857;DHT22;69705;44.686;37.628;2023-10-13T08:29:43;18.72;54.17
76857;DHT22;69705;44.686;37.628;2023-10-13T08:32:25;18.92;51.01
76857;DHT22;69705;44.686;37.628;2023-10-13T08:34:56;19.11;49.55
76857;DHT22;69705;44.686;37.628;2023-10-13T08:37:46;19.20;48.24
76857;DHT22;69705;44.686;37.628;2023-10-13T08:40:22;19.37;49.60
76857;DHT22;69705;44.686;37.628;2023-10-13T08:43:10;19.65;47.32
76857;DHT22;69705;44.686;37.628;2023-10-13T08:45:42;19.65;47.83
76857;DHT22;69705;44.686;37.628;2023-10-13T08:48:13;19.71;46.34
76857;DHT22;69705;44.686;37.628;2023-10-13T08:50:50;19.77;48.42
76857;DHT22;69705;44.686;37.628;2023-10-13T08:53:25;19.91;45.40
76857;DHT22;69705;44.686;37.628;2023-10-13T08:58:37;20.18;43.22
76857;DHT22;69705;44.686;37.628;2023-10-13T09:01:20;20.39;45.68
76857;DHT22;69705;44.686;37.628;2023-10-13T09:04:07;20.34;46.54
76857;DHT22;69705;44.686;37.628;2023-10-13T09:06:54;20.65;44.54
76857;DHT22;69705;44.686;37.628;2023-10-13T09:12:19;21.09;39.25
76857;DHT22;69705;44.686;37.628;2023-10-13T09:14:55;21.17;40.06
76857;DHT22;69705;44.686;37.628;2023-10-13T09:17:26;21.45;43.65
76857;DHT22;69705;44.686;37.628;2023-10-13T09:20:00;21.50;42.14
76857;DHT22;69705;44.686;37.628;2023-10-13T09:22:51;21.54;43.14
76857;DHT22;69705;44.686;37.628;2023-10-13T09:25:38;21.33;41.38
76857;DHT22;69705;44.686;37.628;2023-10-13T09:28:13;21.33;43.36
76857;DHT22;69705;44.686;37.628;2023-10-13T09:30:45;21.45;42.81
76857;DHT22;69705;44.686;37.628;2023-10-13T09:33:12;21.60;42.32
76857;DHT22;69705;44.686;37.628;2023-10-13T09:35:45;21.39;40.86
76857;DHT22;69705;44.686;37.628;2023-10-13T09:38:18;21.34;40.04
76857;DHT22;69705;44.686;37.628;2023-10-13T09:40:45;21.40;40.97
76857;DHT22;69705;44.686;37.628;2023-10-13T09:43:17;21.55;41.35
76857;DHT22;69705;44.686;37.628;2023-10-13T09:45:49;21.64;36.04
76857;DHT22;69705;44.686;37.628;2023-10-13T09:48:45;21.55;41.07
76857;DHT22;69705;44.686;37.628;2023-10-13T09:51:31;21.72;39.21
76857;DHT22;69705;44.686;37.628;2023-10-13T09:54:06;21.67;42.57
76857;DHT22;69705;44.686;37.628;2023-10-13T09:56:40;21.68;43.57
76857;DHT22;69705;44.686;37.628;2023-10-13T09:59:39;21.75;43.84
76857;DHT22;69705;44.686;37.628;2023-10-13T10:02:14;21.79;39.27
76857;DHT22;69705;44.686;37.628;2023-10-13T10:04:56;21.92;42.04
76857;DHT22;69705;44.686;37.628;2023-10-13T10:07:39;22.04;41.62
76857;DHT22;69705;44.686;37.628;2023-10-13T10:10:11;21.90;42.28
76857;DHT22;69705;44.686;37.628;2023-10-13T10:15:33;21.99;40.11
76857;DHT22;69705;44.686;37.628;2023-10-13T10:18:02;22.09;40.00
76857;DHT22;69705;44.686;37.628;2023-10-13T10:20:31;22.01;37.79
76857;DHT22;69705;44.686;37.628;2023-10-13T10:23:26;22.01;39.43
76857;DHT22;69705;44.686;37.628;2023-10-13T10:25:55;21.90;38.46
76857;DHT22;69705;44.686;37.628;2023-10-13T10:28:39;22.04;38.88
76857;DHT22;69705;44.686;37.628;2023-10-13T10:31:11;22.10;38.29
76857;DHT22;69705;44.686;37.628;2023-10-13T10:33:46;22.13;41.28
76857;DHT22;69705;44.686;37.628;2023-10-13T10:36:28;22.19;39.65
76857;DHT22;69705;44.686;37.628;2023-10-13T10:38:57;22.13;40.11
76857;DHT22;69705;44.686;37.628;2023-10-13T10:41:28;22.13;42.52
76857;DHT22;69705;44.686;37.628;2023-10-13T10:44:12;22.06;41.65
76857;DHT22;69705;44.686;37.628;2023-10-13T10:47:09;22.22;41.94
76857;DHT22;69705;44.686;37.628;2023-10-13T10:49:39;22.29;39.94
76857;DHT22;69705;44.686;37.628;2023-10-13T10:52:09;22.28;39.30
76857;DHT22;69705;44.686;37.628;2023-10-13T10:54:45;22.52;40.96
76857;DHT22;69705;44.686;37.628;2023-10-13T10:57:18;22.60;40.86
76857;DHT22;69705;44.686;37.628;2023-10-13T10:59:45;22.28;41.59
76857;DHT22;69705;44.686;37.628;2023-10-13T11:02:12;22.48;41.84
76857;DHT22;69705;44.686;37.628;2023-10-13T11:04:53;22.56;41.06
76857;DHT22;69705;44.686;37.628;2023-10-13T11:07:25;22.54;43.58
76857;DHT22;69705;44.686;37.628;2023-10-13T11:09:54;22.62;41.13
76857;DHT22;69705;44.686;37.628;2023-10-13T11:12:33;22.54;41.54
76857;DHT22;69705;44.686;37.628;2023-10-13T11:17:28;22.78;40.76
76857;DHT22;69705;44.686;37.628;2023-10-13T11:20:30;22.77;42.44
76857;DHT22;69705;44.686;37.628;2023-10-13T11:23:13;22.87;37.84
76857;DHT22;69705;44.686;37.628;2023-10-13T11:25:41;22.96;39.76
76857;DHT22;69705;44.686;37.628;2023-10-13T11:28:11;22.94;41.04
76857;DHT22;69705;44.686;37.628;2023-10-13T11:30:47;22.91;40.20
76857;DHT22;69705;44.686;37.628;2023-10-13T11:33:17;22.91;39.17
76857;DHT22;69705;44.686;37.628;2023-10-13T11:35:45;22.73;38.46
76857;DHT22;69705;44.686;37.628;2023-10-13T11:38:33;22.72;38.77
76857;DHT22;69705;44.686;37.628;2023-10-13T11:41:16;22.67;37.24
76857;DHT22;69705;44.686;37.628;2023-10-13T11:43:52;22.50;36.27
76857;DHT22;69705;44.686;37.628;2023-10-13T11:46:25;22.25;35.59
76857;DHT22;69705;44.686;37.628;2023-10-13T11:49:11;22.09;39.28
76857;DHT22;69705;44.686;37.628;2023-10-13T11:51:48;22.53;34.41
76857;DHT22;69705;44.686;37.628;2023-10-13T11:54:20;22.68;32.96
76857;DHT22;69705;44.686;37.628;2023-10-13T11:56:48;22.64;34.86
76857;DHT22;69705;44.686;37.628;2023-10-13T11:59:16;22.54;34.14
76857;DHT22;69705;44.686;37.628;2023-10-13T12:01:48;22.61;33.57
76857;DHT22;69705;44.686;37.628;2023-10-13T12:04:34;22.70;32.33
76857;DHT22;69705;44.686;37.628;2023-10-13T12:07:21;22.47;30.77
76857;DHT22;69705;44.686;37.628;2023-10-13T12:10:11;22.35;34.12
76857;DHT22;69705;44.686;37.628;2023-10-13T12:13:08;22.32;32.96
76857;DHT22;69705;44.686;37.628;2023-10-13T12:15:36;22.40;32.20
76857;DHT22;69705;44.686;37.628;2023-10-13T12:18:15;22.22;34.61
76857;DHT22;69705;44.686;37.628;2023-10-13T12:20:42;22.14;36.94
76857;DHT22;69705;44.686;37.628;2023-10-13T12:23:13;22.10;35.77
76857;DHT22;69705;44.686;37.628;2023-10-13T12:25:44;21.79;35.92
76857;DHT22;69705;44.686;37.628;2023-10-13T12:28:22;21.80;34.22
76857;DHT22;69705;44.686;37.628;2023-10-13T12:30:50;21.82;36.46
76857;DHT22;69705;44.686;37.628;2023-10-13T12:33:20;21.67;38.29
76857;DHT22;69705;44.686;37.628;2023-10-13T12:36:16;21.53;36.21
76857;DHT22;69705;44.686;37.628;2023-10-13T12:39:03;21.53;34.89
76857;DHT22;69705;44.686;37.628;2023-10-13T12:41:33;21.46;35.05
76857;DHT22;69705;44.686;37.628;2023-10-13T12:44:18;21.28;37.40
76857;DHT22;69705;44.686;37.628;2023-10-13T12:47:04;20.95;37.05
76857;DHT22;69705;44.686;37.628;2023-10-13T12:49:49;20.62;38.85
76857;DHT22;69705;44.686;37.628;2023-10-13T12:52:16;20.49;39.48
76857;DHT22;69705;44.686;37.628;2023-10-13T12:54:48;20.31;41.39
76857;DHT22;69705;44.686;37.628;2023-10-13T12:57:27;20.24;40.05
76857;DHT22;69705;44.686;37.628;2023-10-13T12:59:55;20.07;41.34
76857;DHT22;69705;44.686;37.628;2023-10-13T13:02:24;19.87;43.71
76857;DHT22;69705;44.686;37.628;2023-10-13T13:04:56;19.74;40.93
76857;DHT22;69705;44.686;37.628;2023-10-13T13:07:41;19.75;36.77
76857;DHT22;69705;44.686;37.628;2023-10-13T13:10:19;19.65;38.32
76857;DHT22;69705;44.686;37.628;2023-10-13T13:12:47;19.61;37.35
76857;DHT22;69705;44.686;37.628;2023-10-13T13:15:14;19.55;37.42
76857;DHT22;69705;44.686;37.628;2023-10-13T13:17:41;19.51;37.69
76857;DHT22;69705;44.686;37.628;2023-10-13T13:20:08;19.37;39.93
76857;DHT22;69705;44.686;37.628;2023-10-13T13:22:53;19.23;41.11
76857;DHT22;69705;44.686;37.628;2023-10-13T13:25:20;19.24;42.03
76857;DHT22;69705;44.686;37.628;2023-10-13T13:27:57;19.26;42.42
76857;DHT22;69705;44.686;37.628;2023-10-13T13:30:24;19.18;41.07
76857;DHT22;69705;44.686;37.628;2023-10-13T13:32:56;19.15;43.84
76857;DHT22;69705;44.686;37.628;2023-10-13T13:35:24;19.13;43.19
76857;DHT22;69705;44.686;37.628;2023-10-13T13:37:59;19.08;45.61
76857;DHT22;69705;44.686;37.628;2023-10-13T13:40:32;19.07;45.93
76857;DHT22;69705;44.686;37.628;2023-10-13T13:43:01;19.07;46.73
76857;DHT22;69705;44.686;37.628;2023-10-13T13:45:27;19.01;47.38
76857;DHT22;69705;44.686;37.628;2023-10-13T13:47:55;18.98;47.19
76857;DHT22;69705;44.686;37.628;2023-10-13T13:50:26;18.95;47.73
76857;DHT22;69705;44.686;37.628;2023-10-13T13:52:58;18.89;48.14
76857;DHT22;69705;44.686;37.628;2023-10-13T13:55:26;18.74;50.94
76857;DHT22;69705;44.686;37.628;2023-10-13T13:57:58;18.64;51.65
76857;DHT22;69705;44.686;37.628;2023-10-13T14:00:24;18.51;52.44
76857;DHT22;69705;44.686;37.628;2023-10-13T14:03:07;18.48;50.47
76857;DHT22;69705;44.686;37.628;2023-10-13T14:05:58;18.39;54.36
76857;DHT22;69705;44.686;37.628;2023-10-13T14:08:29;18.36;51.56
76857;DHT22;69705;44.686;37.628;2023-10-13T14:10:56;18.35;54.86
76857;DHT22;69705;44.686;37.628;2023-10-13T14:13:39;18.24;56.87
76857;DHT22;69705;44.686;37.628;2023-10-13T14:16:22;18.10;56.72
76857;DHT22;69705;44.686;37.628;2023-10-13T14:18:50;17.93;56.84
76857;DHT22;69705;44.686;37.628;2023-10-13T14:21:18;17.76;58.83
76857;DHT22;69705;44.686;37.628;2023-10-13T14:23:51;17.51;60.01
76857;DHT22;69705;44.686;37.628;2023-10-13T14:26:20;17.30;61.25
76857;DHT22;69705;44.686;37.628;2023-10-13T14:28:48;17.14;62.47
76857;DHT22;69705;44.686;37.628;2023-10-13T14:31:35;16.96;63.08
76857;DHT22;69705;44.686;37.628;2023-10-13T14:34:08;16.82;61.24
76857;DHT22;69705;44.686;37.628;2023-10-13T14:36:35;16.63;65.00
76857;DHT22;69705;44.686;37.628;2023-10-13T14:39:04;16.29;63.72
76857;DHT22;69705;44.686;37.628;2023-10-13T14:41:36;16.01;64.92
76857;DHT22;69705;44.686;37.628;2023-10-13T14:44:04;15.74;65.78
76857;DHT22;69705;44.686;37.628;2023-10-13T14:46:36;15.46;64.63
76857;DHT22;69705;44.686;37.628;2023-10-13T14:49:05;15.28;64.66
76857;DHT22;69705;44.686;37.628;2023-10-13T14:51:32;15.10;63.44
76857;DHT22;69705;44.686;37.628;2023-10-13T14:53:59;15.01;65.59
76857;DHT22;69705;44.686;37.628;2023-10-13T14:56:27;14.69;67.94
76857;DHT22;69705;44.686;37.628;2023-10-13T14:58:54;14.54;69.13
76857;DHT22;69705;44.686;37.628;2023-10-13T15:01:23;14.44;69.48
76857;DHT22;69705;44.686;37.628;2023-10-13T15:03:53;14.35;68.52
76857;DHT22;69705;44.686;37.628;2023-10-13T15:06:26;14.13;68.86
76857;DHT22;69705;44.686;37.628;2023-10-13T15:08:58;13.94;70.07
76857;DHT22;69705;44.686;37.628;2023-10-13T15:11:27;13.88;70.16
76857;DHT22;69705;44.686;37.628;2023-10-13T15:14:03;13.76;71.26
76857;DHT22;69705;44.686;37.628;2023-10-13T15:16:31;13.69;70.40
76857;DHT22;69705;44.686;37.628;2023-10-13T15:18:58;13.63;70.57
76857;DHT22;69705;44.686;37.628;2023-10-13T15:21:28;13.52;69.99
76857;DHT22;69705;44.686;37.628;2023-10-13T15:24:02;13.45;70.18
76857;DHT22;69705;44.686;37.628;2023-10-13T15:26:41;13.33;70.94
76857;DHT22;69705;44.686;37.628;2023-10-13T15:29:11;13.22;70.93
76857;DHT22;69705;44.686;37.628;2023-10-13T15:31:44;13.15;70.99
76857;DHT22;69705;44.686;37.628;2023-10-13T15:34:31;13.03;70.77
76857;DHT22;69705;44.686;37.628;2023-10-13T15:37:00;12.90;71.66
76857;DHT22;69705;44.686;37.628;2023-10-13T15:39:30;12.78;72.72
76857;DHT22;69705;44.686;37.628;2023-10-13T15:41:58;12.75;72.22
76857;DHT22;69705;44.686;37.628;2023-10-13T15:44:26;12.64;71.77
76857;DHT22;69705;44.686;37.628;2023-10-13T15:46:58;12.49;72.03
76857;DHT22;69705;44.686;37.628;2023-10-13T15:49:25;12.49;72.67
76857;DHT22;69705;44.686;37.628;2023-10-13T15:51:54;12.45;72.42
76857;DHT22;69705;44.686;37.628;2023-10-13T15:54:24;12.38;72.79
76857;DHT22;69705;44.686;37.628;2023-10-13T15:56:51;12.27;74.33
76857;DHT22;69705;44.686;37.628;2023-10-13T15:59:18;12.23;73.52
76857;DHT22;69705;44.686;37.628;2023-10-13T16:01:45;12.15;74.18
76857;DHT22;69705;44.686;37.628;2023-10-13T16:04:21;12.07;74.60
76857;DHT22;69705;44.686;37.628;2023-10-13T16:06:49;12.06;73.99
76857;DHT22;69705;44.686;37.628;2023-10-13T16:09:19;12.12;73.66
76857;DHT22;69705;44.686;37.628;2023-10-13T16:11:51;12.17;72.55
76857;DHT22;69705;44.686;37.628;2023-10-13T16:14:18;12.16;73.00
76857;DHT22;69705;44.686;37.628;2023-10-13T16:16:48;12.16;72.57
76857;DHT22;69705;44.686;37.628;2023-10-13T16:19:19;12.14;73.28